Time;durP1;ratioP1;P1;durP2;ratioP2;P2;SDS_P1;SDS_P2;PMS_P1;PMS_P2;Temp;Humidity;BMP_temperature;BMP_pressure;BME280_temperature;BME280_humidity;BME280_pressure;Samples;Min_cycle;Max_cycle;Signal;HPM_P1;HPM_P2
2022/11/10 00:02:01;;;;;;;104.53;44.47;;;;;;;;;;6213451;23;20023;-78
2022/11/10 00:04:27;;;;;;;126.05;47.88;;;;;;;;;;6138026;23;20087;-78
2022/11/10 00:06:52;;;;;;;115.20;47.20;;;;;;;;;;6215216;23;19997;-78
2022/11/10 00:09:18;;;;;;;117.97;48.83;;;;;;;;;;6188087;23;20005;-78
2022/11/10 00:11:43;;;;;;;100.60;44.38;;;;;;;;;;6186650;23;20008;-78
2022/11/10 00:17:03;;;;;;;109.20;45.22;;;;;;;;;;6192349;23;20510;-78
2022/11/10 00:19:32;;;;;;;118.30;45.35;;;;;;;;;;6188922;23;20005;-78
2022/11/10 00:21:58;;;;;;;100.47;41.67;;;;;;;;;;6215446;23;20348;-78
2022/11/10 00:24:24;;;;;;;114.72;45.13;;;;;;;;;;6189154;23;20011;-78
2022/11/10 00:26:50;;;;;;;106.40;45.08;;;;;;;;;;6218910;23;20503;-77
2022/11/10 00:29:15;;;;;;;100.30;43.17;;;;;;;;;;6216212;23;20344;-78
2022/11/10 00:31:41;;;;;;;97.43;42.17;;;;;;;;;;6215736;23;20016;-79
2022/11/10 00:34:07;;;;;;;103.45;42.10;;;;;;;;;;6215436;23;20000;-79
2022/11/10 00:36:36;;;;;;;97.13;42.45;;;;;;;;;;6164407;23;20005;-79
2022/11/10 00:39:01;;;;;;;106.32;44.60;;;;;;;;;;6215464;23;20004;-78
2022/11/10 00:41:27;;;;;;;97.55;41.47;;;;;;;;;;6188283;23;20005;-79
2022/11/10 00:43:52;;;;;;;110.22;42.70;;;;;;;;;;6188821;23;20390;-78
2022/11/10 00:46:18;;;;;;;95.63;40.72;;;;;;;;;;6194393;23;20065;-77
2022/11/10 00:48:43;;;;;;;94.85;40.92;;;;;;;;;;6230454;23;20001;-78
2022/11/10 00:51:19;;;;;;;106.38;42.90;;;;;;;;;;6215835;23;20007;-78
2022/11/10 00:53:44;;;;;;;98.40;41.67;;;;;;;;;;6141152;23;20011;-78
2022/11/10 00:56:10;;;;;;;102.35;42.50;;;;;;;;;;6214823;23;20081;-79
2022/11/10 00:58:35;;;;;;;104.50;42.13;;;;;;;;;;6188995;23;20399;-78
2022/11/10 01:01:02;;;;;;;105.53;41.13;;;;;;;;;;6188684;23;20015;-79
2022/11/10 01:03:27;;;;;;;107.00;42.22;;;;;;;;;;6188637;23;20332;-78
2022/11/10 01:05:53;;;;;;;108.15;40.97;;;;;;;;;;6216972;23;20080;-79
2022/11/10 01:08:18;;;;;;;92.05;40.20;;;;;;;;;;6220782;23;20540;-79
2022/11/10 01:10:44;;;;;;;97.80;41.08;;;;;;;;;;6215353;23;20011;-79
2022/11/10 01:13:09;;;;;;;95.40;41.50;;;;;;;;;;6215804;23;20000;-79
2022/11/10 01:15:38;;;;;;;92.53;40.25;;;;;;;;;;6214832;23;20036;-79
2022/11/10 01:18:04;;;;;;;92.70;38.78;;;;;;;;;;6189351;23;19996;-79
2022/11/10 01:20:30;;;;;;;94.20;42.13;;;;;;;;;;6214886;23;20088;-79
2022/11/10 01:22:55;;;;;;;98.93;40.92;;;;;;;;;;6163902;23;20001;-78
2022/11/10 01:25:21;;;;;;;91.47;40.72;;;;;;;;;;6190314;23;20005;-78
2022/11/10 01:27:46;;;;;;;88.63;40.13;;;;;;;;;;6228538;22;20044;-77
2022/11/10 01:30:12;;;;;;;95.55;39.80;;;;;;;;;;6219227;23;20017;-78
2022/11/10 01:32:37;;;;;;;95.18;39.97;;;;;;;;;;6216118;23;20076;-77
2022/11/10 01:35:03;;;;;;;103.03;41.13;;;;;;;;;;6189083;23;20001;-78
2022/11/10 01:37:29;;;;;;;102.80;42.65;;;;;;;;;;6189034;23;20163;-78
2022/11/10 01:39:54;;;;;;;104.07;42.55;;;;;;;;;;6214566;23;20016;-79
2022/11/10 01:42:27;;;;;;;107.93;42.67;;;;;;;;;;6214860;23;20028;-79
2022/11/10 01:45:23;;;;;;;101.47;41.55;;;;;;;;;;6214878;23;20005;-78
2022/11/10 01:47:53;;;;;;;95.10;41.13;;;;;;;;;;6223080;22;19996;-78
2022/11/10 01:50:19;;;;;;;99.68;41.10;;;;;;;;;;6147248;23;20017;-78
2022/11/10 01:52:46;;;;;;;90.38;40.00;;;;;;;;;;6163981;23;19997;-78
2022/11/10 01:55:12;;;;;;;103.32;43.00;;;;;;;;;;6188237;23;20015;-78
2022/11/10 01:57:37;;;;;;;100.07;42.25;;;;;;;;;;6163602;23;20016;-77
2022/11/10 02:00:03;;;;;;;103.72;42.45;;;;;;;;;;6188021;23;20001;-79
2022/11/10 02:02:35;;;;;;;90.07;39.97;;;;;;;;;;6214939;23;20126;-77
2022/11/10 02:05:01;;;;;;;89.85;40.85;;;;;;;;;;6188072;23;20020;-79
2022/11/10 02:07:26;;;;;;;94.90;41.10;;;;;;;;;;6163516;23;19996;-78
2022/11/10 02:09:52;;;;;;;88.55;40.13;;;;;;;;;;6164234;23;20005;-77
2022/11/10 02:12:35;;;;;;;101.57;40.85;;;;;;;;;;6215524;23;20428;-78
2022/11/10 02:15:02;;;;;;;88.43;38.15;;;;;;;;;;6214739;23;20048;-78
2022/11/10 02:17:27;;;;;;;87.63;38.63;;;;;;;;;;6213600;23;20356;-78
2022/11/10 02:19:56;;;;;;;96.82;39.95;;;;;;;;;;6188005;23;20020;-77
2022/11/10 02:22:22;;;;;;;91.28;41.13;;;;;;;;;;6163941;23;20511;-77
2022/11/10 02:24:47;;;;;;;89.68;37.95;;;;;;;;;;6214205;23;20005;-79
2022/11/10 02:27:13;;;;;;;90.57;38.55;;;;;;;;;;6188325;23;20440;-77
2022/11/10 02:29:38;;;;;;;88.45;37.78;;;;;;;;;;6222452;23;20004;-79
2022/11/10 02:32:04;;;;;;;98.63;41.08;;;;;;;;;;6214497;23;20004;-78
2022/11/10 02:34:29;;;;;;;94.13;40.80;;;;;;;;;;6214703;23;20190;-78
2022/11/10 02:36:55;;;;;;;83.35;37.05;;;;;;;;;;6187925;23;20005;-77
2022/11/10 02:39:20;;;;;;;87.35;38.42;;;;;;;;;;6187500;23;20054;-77
2022/11/10 02:41:46;;;;;;;80.05;37.67;;;;;;;;;;6187667;23;20371;-77
2022/11/10 02:44:11;;;;;;;83.65;37.83;;;;;;;;;;6214508;23;20000;-78
2022/11/10 02:46:37;;;;;;;87.18;37.40;;;;;;;;;;6187674;23;20075;-78
2022/11/10 02:49:02;;;;;;;89.80;37.15;;;;;;;;;;6216772;23;20004;-79
2022/11/10 02:51:28;;;;;;;88.45;37.97;;;;;;;;;;6190547;23;20497;-77
2022/11/10 02:53:53;;;;;;;83.85;37.83;;;;;;;;;;6187654;23;19996;-78
2022/11/10 02:56:19;;;;;;;83.43;36.90;;;;;;;;;;6214338;23;20004;-77
2022/11/10 02:58:44;;;;;;;84.88;38.03;;;;;;;;;;6214136;23;20000;-78
2022/11/10 03:01:10;;;;;;;85.45;37.75;;;;;;;;;;6213905;23;20419;-77
2022/11/10 03:03:35;;;;;;;84.38;37.75;;;;;;;;;;6188163;23;20095;-77
2022/11/10 03:06:00;;;;;;;79.97;37.60;;;;;;;;;;6214201;23;20380;-78
2022/11/10 03:08:26;;;;;;;81.32;37.13;;;;;;;;;;6214074;23;20007;-77
2022/11/10 03:10:53;;;;;;;83.63;36.30;;;;;;;;;;6195493;23;20440;-78
2022/11/10 03:13:19;;;;;;;88.47;36.40;;;;;;;;;;6188395;23;20000;-78
2022/11/10 03:15:46;;;;;;;81.65;37.00;;;;;;;;;;6214310;23;20442;-78
2022/11/10 03:18:12;;;;;;;86.63;36.88;;;;;;;;;;6186515;23;20011;-78
2022/11/10 03:20:37;;;;;;;85.18;38.25;;;;;;;;;;6213769;23;20075;-78
2022/11/10 03:23:03;;;;;;;95.68;39.60;;;;;;;;;;6214095;23;19996;-77
2022/11/10 03:25:28;;;;;;;89.93;37.90;;;;;;;;;;6214266;23;20471;-78
2022/11/10 03:27:54;;;;;;;92.35;38.10;;;;;;;;;;6214086;23;20010;-77
2022/11/10 03:30:19;;;;;;;101.65;40.85;;;;;;;;;;6166085;23;20021;-81
2022/11/10 03:32:44;;;;;;;91.55;38.28;;;;;;;;;;6215160;23;20008;-79
2022/11/10 03:35:10;;;;;;;88.30;37.83;;;;;;;;;;6213577;23;20001;-77
2022/11/10 03:37:35;;;;;;;88.05;38.55;;;;;;;;;;6213718;23;20008;-79
2022/11/10 03:40:01;;;;;;;94.10;39.75;;;;;;;;;;6212076;23;20001;-78
2022/11/10 03:42:26;;;;;;;86.00;37.88;;;;;;;;;;6214019;23;20004;-79
2022/11/10 03:44:52;;;;;;;93.47;38.67;;;;;;;;;;6212342;23;20024;-79
2022/11/10 03:47:17;;;;;;;99.70;41.20;;;;;;;;;;6213656;23;20009;-78
2022/11/10 03:49:43;;;;;;;93.03;39.00;;;;;;;;;;6211667;23;20005;-79
2022/11/10 03:52:08;;;;;;;91.00;39.20;;;;;;;;;;6216455;23;20070;-78
2022/11/10 03:54:34;;;;;;;91.82;39.03;;;;;;;;;;6213798;23;20000;-79
2022/11/10 03:56:59;;;;;;;87.32;37.35;;;;;;;;;;6238189;23;20001;-79
2022/11/10 03:59:25;;;;;;;78.15;36.15;;;;;;;;;;6213574;23;20005;-78
2022/11/10 04:01:50;;;;;;;83.97;37.10;;;;;;;;;;6214116;23;20011;-78
2022/11/10 04:09:43;;;;;;;83.30;36.28;;;;;;;;;;6213655;23;20015;-78
2022/11/10 04:17:37;;;;;;;87.32;37.15;;;;;;;;;;6213649;23;20008;-78
2022/11/10 04:20:03;;;;;;;86.53;39.30;;;;;;;;;;6210709;23;20001;-78
2022/11/10 04:25:13;;;;;;;88.38;38.33;;;;;;;;;;6213815;23;20024;-78
2022/11/10 04:27:39;;;;;;;85.70;39.30;;;;;;;;;;6212353;23;19996;-78
2022/11/10 04:30:05;;;;;;;89.93;39.63;;;;;;;;;;6211706;23;20343;-78
2022/11/10 04:32:30;;;;;;;88.00;38.55;;;;;;;;;;6217336;23;20074;-78
2022/11/10 04:34:56;;;;;;;89.32;37.83;;;;;;;;;;6213711;23;20076;-78
2022/11/10 04:37:21;;;;;;;89.38;38.10;;;;;;;;;;6187401;23;20063;-79
2022/11/10 04:39:47;;;;;;;83.35;36.65;;;;;;;;;;6190417;23;20024;-78
2022/11/10 04:42:12;;;;;;;84.38;36.65;;;;;;;;;;6219658;23;20043;-78
2022/11/10 04:44:37;;;;;;;86.07;37.70;;;;;;;;;;6187234;23;20059;-78
2022/11/10 04:47:03;;;;;;;84.93;36.28;;;;;;;;;;6187068;23;20081;-77
2022/11/10 04:49:28;;;;;;;82.13;36.78;;;;;;;;;;6213020;23;19996;-78
2022/11/10 04:51:54;;;;;;;83.22;36.67;;;;;;;;;;6196918;23;20013;-78
2022/11/10 04:54:19;;;;;;;89.50;37.97;;;;;;;;;;6216414;23;19997;-78
2022/11/10 04:56:45;;;;;;;89.18;39.33;;;;;;;;;;6213699;23;20062;-77
2022/11/10 04:59:10;;;;;;;87.82;37.80;;;;;;;;;;6213424;23;20001;-77
2022/11/10 05:01:35;;;;;;;86.70;37.70;;;;;;;;;;6213571;23;20004;-78
2022/11/10 05:04:01;;;;;;;89.20;38.88;;;;;;;;;;6188397;23;20000;-79
2022/11/10 05:06:26;;;;;;;90.07;39.38;;;;;;;;;;6215210;23;20000;-78
2022/11/10 05:08:52;;;;;;;91.13;38.33;;;;;;;;;;6188619;23;20004;-79
2022/11/10 05:11:17;;;;;;;83.30;38.67;;;;;;;;;;6163686;23;20027;-77
2022/11/10 05:13:43;;;;;;;80.78;37.42;;;;;;;;;;6209795;23;20037;-81
2022/11/10 05:16:09;;;;;;;86.85;37.67;;;;;;;;;;6222369;23;20032;-81
2022/11/10 05:18:34;;;;;;;83.82;37.88;;;;;;;;;;6188327;23;20000;-82
2022/11/10 05:21:00;;;;;;;88.80;37.28;;;;;;;;;;6215197;23;19996;-82
2022/11/10 05:23:37;;;;;;;89.68;37.42;;;;;;;;;;6214094;23;20486;-82
2022/11/10 05:26:10;;;;;;;83.18;36.45;;;;;;;;;;6215364;23;20007;-81
2022/11/10 05:28:36;;;;;;;93.47;38.65;;;;;;;;;;6215639;23;20033;-82
2022/11/10 05:31:02;;;;;;;78.47;36.28;;;;;;;;;;6139332;23;20451;-81
2022/11/10 05:33:27;;;;;;;81.72;36.78;;;;;;;;;;6232160;23;20001;-82
2022/11/10 05:35:53;;;;;;;87.80;37.78;;;;;;;;;;6190247;23;20004;-81
2022/11/10 05:38:19;;;;;;;96.07;40.58;;;;;;;;;;6163561;23;20454;-83
2022/11/10 05:40:44;;;;;;;88.93;39.75;;;;;;;;;;6163403;23;20004;-82
2022/11/10 05:43:10;;;;;;;101.80;42.85;;;;;;;;;;6188923;23;20039;-82
2022/11/10 05:45:35;;;;;;;91.25;41.10;;;;;;;;;;6188218;23;20005;-82
2022/11/10 05:48:00;;;;;;;85.53;38.97;;;;;;;;;;6188327;23;20065;-83
2022/11/10 05:50:26;;;;;;;95.20;42.17;;;;;;;;;;6213370;23;20005;-82
2022/11/10 05:52:52;;;;;;;101.78;43.17;;;;;;;;;;6185605;23;20008;-82
2022/11/10 05:55:29;;;;;;;92.75;41.67;;;;;;;;;;6217638;23;20216;-82
2022/11/10 05:58:02;;;;;;;81.88;38.15;;;;;;;;;;6192456;23;20004;-81
2022/11/10 06:00:29;;;;;;;82.30;38.33;;;;;;;;;;6214861;23;20019;-82
2022/11/10 06:03:05;;;;;;;77.28;37.90;;;;;;;;;;6164972;23;20058;-80
2022/11/10 06:05:33;;;;;;;73.43;35.72;;;;;;;;;;6165040;23;20097;-80
2022/11/10 06:08:08;;;;;;;77.68;37.15;;;;;;;;;;6170336;23;20024;-81
2022/11/10 06:10:34;;;;;;;75.15;35.35;;;;;;;;;;6170068;23;20059;-81
2022/11/10 06:13:03;;;;;;;73.80;36.17;;;;;;;;;;6168988;23;20004;-81
2022/11/10 06:15:30;;;;;;;65.57;32.85;;;;;;;;;;6173727;23;20083;-81
2022/11/10 06:17:59;;;;;;;65.45;34.25;;;;;;;;;;6190108;23;20058;-79
2022/11/10 06:20:26;;;;;;;76.90;36.33;;;;;;;;;;6161892;23;20060;-79
2022/11/10 06:23:01;;;;;;;71.05;35.67;;;;;;;;;;6183173;23;20009;-80
2022/11/10 06:25:28;;;;;;;69.53;35.38;;;;;;;;;;6185264;23;20066;-81
2022/11/10 06:27:54;;;;;;;71.13;34.95;;;;;;;;;;6156443;23;20001;-78
2022/11/10 06:30:25;;;;;;;63.63;33.08;;;;;;;;;;6187393;23;20066;-77
2022/11/10 06:32:51;;;;;;;100.88;36.33;;;;;;;;;;6186500;23;20027;-78
2022/11/10 06:35:18;;;;;;;146.98;35.90;;;;;;;;;;6216241;23;20005;-82
2022/11/10 06:38:19;;;;;;;71.85;33.67;;;;;;;;;;6191697;23;20039;-80
2022/11/10 06:40:45;;;;;;;57.67;30.88;;;;;;;;;;6070329;23;20017;-79
2022/11/10 06:43:17;;;;;;;58.03;31.83;;;;;;;;;;6189555;23;20372;-81
2022/11/10 06:45:46;;;;;;;63.20;33.55;;;;;;;;;;6189791;23;20435;-82
2022/11/10 06:48:15;;;;;;;60.60;32.20;;;;;;;;;;6189904;23;20012;-80
2022/11/10 06:50:41;;;;;;;61.78;33.67;;;;;;;;;;6187221;23;20008;-80
2022/11/10 06:53:08;;;;;;;67.80;33.25;;;;;;;;;;6209452;23;20329;-79
2022/11/10 06:55:33;;;;;;;66.05;32.63;;;;;;;;;;6166215;23;20044;-80
2022/11/10 06:58:02;;;;;;;56.72;32.05;;;;;;;;;;6213729;23;20004;-78
2022/11/10 07:00:27;;;;;;;61.90;30.95;;;;;;;;;;6185556;23;20331;-77
2022/11/10 07:03:05;;;;;;;59.90;31.85;;;;;;;;;;6158957;23;20088;-78
2022/11/10 07:05:32;;;;;;;61.33;31.48;;;;;;;;;;6163918;23;20467;-79
2022/11/10 07:08:04;;;;;;;58.15;30.95;;;;;;;;;;6212969;23;20000;-82
2022/11/10 07:10:30;;;;;;;54.85;30.42;;;;;;;;;;6186223;23;20011;-79
2022/11/10 07:12:59;;;;;;;65.55;30.88;;;;;;;;;;6220049;23;19997;-77
2022/11/10 07:15:25;;;;;;;57.70;30.45;;;;;;;;;;6217745;23;20005;-78
2022/11/10 07:17:54;;;;;;;57.85;30.17;;;;;;;;;;6212624;23;20321;-82
2022/11/10 07:20:19;;;;;;;49.20;28.90;;;;;;;;;;6187344;23;20005;-78
2022/11/10 07:22:45;;;;;;;55.45;30.30;;;;;;;;;;6187632;23;20005;-78
2022/11/10 07:25:11;;;;;;;60.22;31.58;;;;;;;;;;6186885;23;20000;-78
2022/11/10 07:27:36;;;;;;;60.05;31.55;;;;;;;;;;6161536;23;20054;-78
2022/11/10 07:30:03;;;;;;;56.90;32.15;;;;;;;;;;6187692;23;20001;-76
2022/11/10 07:32:28;;;;;;;49.30;29.60;;;;;;;;;;6218711;23;20017;-77
2022/11/10 07:34:54;;;;;;;49.65;28.95;;;;;;;;;;6193555;23;20004;-78
2022/11/10 07:37:19;;;;;;;51.00;27.40;;;;;;;;;;6217119;23;20012;-80
2022/11/10 07:39:45;;;;;;;53.45;29.00;;;;;;;;;;6163659;23;20000;-80
2022/11/10 07:42:13;;;;;;;46.95;26.77;;;;;;;;;;6215779;23;20012;-79
2022/11/10 07:44:39;;;;;;;46.15;26.77;;;;;;;;;;6164952;23;20086;-79
2022/11/10 07:47:13;;;;;;;48.30;25.25;;;;;;;;;;6214643;23;20004;-81
2022/11/10 07:49:39;;;;;;;50.45;25.52;;;;;;;;;;6216786;23;20027;-78
2022/11/10 07:52:04;;;;;;;51.88;26.13;;;;;;;;;;6222435;23;20009;-79
2022/11/10 07:54:30;;;;;;;42.38;25.13;;;;;;;;;;6186921;23;20004;-78
2022/11/10 07:56:55;;;;;;;42.45;25.10;;;;;;;;;;6210793;23;20340;-79
2022/11/10 07:59:20;;;;;;;47.45;25.48;;;;;;;;;;6223259;23;20032;-79
2022/11/10 08:01:46;;;;;;;43.90;25.95;;;;;;;;;;6190121;23;20008;-79
2022/11/10 08:04:11;;;;;;;44.55;25.63;;;;;;;;;;6213036;23;20335;-78
2022/11/10 08:06:37;;;;;;;42.33;25.55;;;;;;;;;;6213930;23;20027;-78
2022/11/10 08:09:02;;;;;;;50.50;26.40;;;;;;;;;;6212935;23;20125;-79
2022/11/10 08:11:28;;;;;;;44.25;28.90;;;;;;;;;;6218401;23;20005;-78
2022/11/10 08:13:53;;;;;;;47.35;28.58;;;;;;;;;;6187670;23;20007;-79
2022/11/10 08:16:19;;;;;;;51.30;30.67;;;;;;;;;;6185825;23;20008;-79
2022/11/10 08:18:44;;;;;;;48.65;30.50;;;;;;;;;;6213249;23;20378;-78
2022/11/10 08:21:10;;;;;;;54.40;29.08;;;;;;;;;;6213525;23;20249;-79
2022/11/10 08:23:35;;;;;;;55.60;31.33;;;;;;;;;;6213707;23;20001;-79
2022/11/10 08:26:01;;;;;;;61.03;33.03;;;;;;;;;;6214134;23;20011;-79
2022/11/10 08:28:26;;;;;;;60.25;33.55;;;;;;;;;;6190067;23;20008;-80
2022/11/10 08:30:52;;;;;;;59.13;34.28;;;;;;;;;;6188783;23;20013;-81
2022/11/10 08:33:19;;;;;;;67.30;36.58;;;;;;;;;;6187878;23;20340;-78
2022/11/10 08:35:46;;;;;;;85.50;46.30;;;;;;;;;;6215421;23;20509;-78
2022/11/10 08:38:13;;;;;;;93.50;49.92;;;;;;;;;;6186772;23;20147;-78
2022/11/10 08:40:39;;;;;;;80.70;44.92;;;;;;;;;;6188655;23;20049;-78
2022/11/10 08:43:06;;;;;;;62.97;37.75;;;;;;;;;;6214504;23;20398;-79
2022/11/10 08:45:37;;;;;;;65.38;33.78;;;;;;;;;;6186999;23;20008;-79
2022/11/10 08:48:07;;;;;;;53.78;33.42;;;;;;;;;;6214679;23;20440;-84
2022/11/10 08:50:33;;;;;;;66.80;37.67;;;;;;;;;;6215048;23;20009;-78
2022/11/10 08:53:06;;;;;;;63.35;34.25;;;;;;;;;;6166917;23;19996;-80
2022/11/10 08:55:33;;;;;;;63.35;34.00;;;;;;;;;;6183017;23;20020;-81
2022/11/10 08:58:01;;;;;;;58.97;35.45;;;;;;;;;;6212747;23;20004;-80
2022/11/10 09:00:44;;;;;;;59.20;34.13;;;;;;;;;;6167270;23;20020;-78
2022/11/10 09:03:13;;;;;;;58.92;34.35;;;;;;;;;;6209237;23;20035;-80
2022/11/10 09:05:39;;;;;;;52.88;29.85;;;;;;;;;;6183946;23;20062;-81
2022/11/10 09:08:05;;;;;;;59.25;33.13;;;;;;;;;;6143874;23;20362;-80
2022/11/10 09:10:35;;;;;;;55.05;31.40;;;;;;;;;;6171649;23;20039;-80
2022/11/10 09:13:01;;;;;;;54.97;29.85;;;;;;;;;;6162402;23;20436;-80
2022/11/10 09:15:27;;;;;;;54.45;29.80;;;;;;;;;;6185030;23;20264;-79
2022/11/10 09:17:52;;;;;;;54.42;32.05;;;;;;;;;;6212630;23;20391;-80
2022/11/10 09:20:18;;;;;;;53.90;32.70;;;;;;;;;;6213256;23;20000;-82
2022/11/10 09:22:43;;;;;;;56.22;32.95;;;;;;;;;;6213284;23;20273;-81
2022/11/10 09:25:09;;;;;;;55.67;32.05;;;;;;;;;;6213439;23;20078;-80
2022/11/10 09:27:38;;;;;;;66.07;34.10;;;;;;;;;;6171269;23;20032;-80
2022/11/10 09:30:05;;;;;;;60.45;34.10;;;;;;;;;;6197490;23;20440;-81
2022/11/10 09:32:32;;;;;;;59.40;34.17;;;;;;;;;;6187238;23;20040;-81
2022/11/10 09:34:58;;;;;;;57.45;32.42;;;;;;;;;;6213824;23;20000;-81
2022/11/10 09:37:24;;;;;;;58.83;34.35;;;;;;;;;;6187729;23;20000;-82
2022/11/10 09:39:49;;;;;;;57.45;32.85;;;;;;;;;;6190426;23;20000;-80
2022/11/10 09:42:38;;;;;;;62.92;35.25;;;;;;;;;;6221162;23;20004;-80
2022/11/10 09:45:19;;;;;;;62.42;34.45;;;;;;;;;;6170088;23;20047;-79
2022/11/10 09:48:00;;;;;;;60.53;35.08;;;;;;;;;;6216946;23;20039;-81
2022/11/10 09:50:49;;;;;;;63.28;36.45;;;;;;;;;;6188926;23;20020;-83
2022/11/10 09:53:19;;;;;;;67.82;36.30;;;;;;;;;;6167554;23;20019;-80
2022/11/10 09:55:49;;;;;;;69.13;38.17;;;;;;;;;;6186432;23;20075;-80
2022/11/10 09:58:15;;;;;;;74.03;38.38;;;;;;;;;;6212980;23;20004;-79
2022/11/10 10:00:52;;;;;;;68.00;38.70;;;;;;;;;;6161033;23;20095;-78
2022/11/10 10:03:23;;;;;;;72.43;40.10;;;;;;;;;;6164222;23;20013;-77
2022/11/10 10:06:10;;;;;;;70.32;39.78;;;;;;;;;;6190256;23;20012;-79
2022/11/10 10:08:54;;;;;;;74.13;40.38;;;;;;;;;;6188624;23;20466;-78
2022/11/10 10:12:12;;;;;;;86.50;38.97;;;;;;;;;;6185314;23;20005;-77
2022/11/10 10:15:07;;;;;;;75.78;40.53;;;;;;;;;;6066534;23;20010;-78
2022/11/10 10:17:41;;;;;;;79.20;41.50;;;;;;;;;;6096583;23;20017;-78
2022/11/10 10:23:35;;;;;;;79.20;40.42;;;;;;;;;;6187771;22;1435945;-81
2022/11/10 10:26:04;;;;;;;70.18;39.25;;;;;;;;;;6231219;23;20015;-82
2022/11/10 10:28:58;;;;;;;74.13;40.13;;;;;;;;;;6283120;22;20008;-79
2022/11/10 10:31:52;;;;;;;74.78;40.25;;;;;;;;;;6227973;23;20012;-79
2022/11/10 10:34:23;;;;;;;78.10;41.00;;;;;;;;;;6246146;23;20433;-80
2022/11/10 10:36:49;;;;;;;72.95;39.88;;;;;;;;;;6246146;22;20008;-77
2022/11/10 10:39:29;;;;;;;73.60;40.70;;;;;;;;;;6248559;22;20027;-78
2022/11/10 10:41:54;;;;;;;74.15;40.35;;;;;;;;;;6220815;23;20011;-78
2022/11/10 10:44:20;;;;;;;77.30;39.38;;;;;;;;;;6247312;23;20055;-78
2022/11/10 10:46:46;;;;;;;71.20;39.28;;;;;;;;;;6245699;23;20065;-76
2022/11/10 10:49:16;;;;;;;90.82;40.30;;;;;;;;;;6243725;22;20004;-79
2022/11/10 10:51:41;;;;;;;;;;;;;;;;;;6240825;22;20371;-78
2022/11/10 10:57:29;;;;;;;78.00;39.07;;;;;;;;;;6240046;22;20024;-78
2022/11/10 11:00:40;;;;;;;71.07;38.67;;;;;;;;;;6192696;23;20015;-78
2022/11/10 11:03:37;;;;;;;70.70;38.17;;;;;;;;;;6241325;23;20004;-77
2022/11/10 11:06:13;;;;;;;75.07;38.58;;;;;;;;;;6215527;23;20555;-76
2022/11/10 11:08:39;;;;;;;74.03;39.45;;;;;;;;;;6213068;23;20008;-77
2022/11/10 11:11:09;;;;;;;70.93;38.85;;;;;;;;;;6214804;23;20528;-77
2022/11/10 11:13:35;;;;;;;;;;;;;;;;;;6215992;23;20091;-78
2022/11/10 11:16:06;;;;;;;64.22;34.10;;;;;;;;;;6216616;23;19915;-78
2022/11/10 11:18:32;;;;;;;64.30;34.55;;;;;;;;;;6198533;23;20176;-77
2022/11/10 11:21:11;;;;;;;64.78;37.17;;;;;;;;;;6216923;23;20423;-76
2022/11/10 11:24:11;;;;;;;70.38;35.70;;;;;;;;;;6176335;23;20023;-76
2022/11/10 11:27:00;;;;;;;67.60;35.92;;;;;;;;;;6249311;23;20011;-78
2022/11/10 11:29:45;;;;;;;65.00;36.42;;;;;;;;;;6191797;23;20004;-77
2022/11/10 11:32:45;;;;;;;60.70;34.08;;;;;;;;;;6215931;23;20016;-76
2022/11/10 11:35:26;;;;;;;70.88;35.22;;;;;;;;;;6239271;23;20008;-77
2022/11/10 11:38:02;;;;;;;68.43;34.25;;;;;;;;;;6189631;23;20332;-77
2022/11/10 11:40:47;;;;;;;69.30;37.25;;;;;;;;;;6216785;23;20522;-76
2022/11/10 11:43:27;;;;;;;64.65;33.90;;;;;;;;;;6216256;23;20012;-76
2022/11/10 11:46:21;;;;;;;70.03;34.65;;;;;;;;;;6244807;23;20004;-77
2022/11/10 11:48:52;;;;;;;67.55;34.13;;;;;;;;;;6241558;23;20035;-76
2022/11/10 11:51:46;;;;;;;62.53;35.58;;;;;;;;;;6240023;23;20007;-76
2022/11/10 11:54:35;;;;;;;69.47;35.42;;;;;;;;;;6241412;23;20098;-77
2022/11/10 11:57:48;;;;;;;63.47;34.55;;;;;;;;;;6162044;23;20500;-77
2022/11/10 12:00:14;;;;;;;67.10;37.03;;;;;;;;;;6123980;23;20359;-77
2022/11/10 12:05:23;;;;;;;66.65;35.83;;;;;;;;;;6269838;22;20077;-76
2022/11/10 12:08:08;;;;;;;;;;;;;;;;;;6268664;22;20439;-77
2022/11/10 12:10:52;;;;;;;69.10;35.38;;;;;;;;;;6271196;22;20243;-78
2022/11/10 12:13:29;;;;;;;68.72;35.75;;;;;;;;;;6273766;22;19999;-77
2022/11/10 12:15:57;;;;;;;70.43;35.63;;;;;;;;;;6248197;22;20416;-77
2022/11/10 12:18:32;;;;;;;64.35;34.75;;;;;;;;;;6273460;22;20023;-78
2022/11/10 12:21:43;;;;;;;66.55;35.10;;;;;;;;;;6272904;22;20068;-78
2022/11/10 12:24:21;;;;;;;68.00;38.35;;;;;;;;;;6184928;23;20008;-78
2022/11/10 12:26:58;;;;;;;62.90;35.60;;;;;;;;;;6267978;22;20015;-79
2022/11/10 12:29:41;;;;;;;65.65;35.65;;;;;;;;;;6272499;22;20007;-78
2022/11/10 12:32:31;;;;;;;73.55;36.05;;;;;;;;;;6272115;22;20011;-77
2022/11/10 12:35:04;;;;;;;67.10;34.72;;;;;;;;;;6275354;22;20000;-79
2022/11/10 12:37:35;;;;;;;62.35;35.78;;;;;;;;;;6270916;22;20075;-78
2022/11/10 12:40:22;;;;;;;64.07;32.85;;;;;;;;;;6272545;22;20000;-79
2022/11/10 12:43:23;;;;;;;63.13;36.13;;;;;;;;;;6270415;22;20000;-78
2022/11/10 12:45:52;;;;;;;69.80;35.33;;;;;;;;;;6248947;22;20031;-78
2022/11/10 12:48:17;;;;;;;62.88;34.00;;;;;;;;;;6269475;22;20004;-78
2022/11/10 12:50:49;;;;;;;63.45;32.72;;;;;;;;;;6247387;22;20004;-78
2022/11/10 12:53:15;;;;;;;59.20;33.30;;;;;;;;;;6272186;22;20008;-77
2022/11/10 12:55:43;;;;;;;53.78;31.30;;;;;;;;;;6272482;22;20030;-77
2022/11/10 12:58:11;;;;;;;57.70;32.17;;;;;;;;;;6255577;22;19999;-77
2022/11/10 13:01:03;;;;;;;53.83;31.10;;;;;;;;;;6250898;22;19996;-78
2022/11/10 13:03:31;;;;;;;45.40;27.13;;;;;;;;;;6272162;22;20011;-77
2022/11/10 13:06:04;;;;;;;48.83;27.20;;;;;;;;;;6274141;22;20014;-77
2022/11/10 13:08:39;;;;;;;53.60;28.73;;;;;;;;;;6272444;22;20000;-78
2022/11/10 13:11:11;;;;;;;45.58;26.20;;;;;;;;;;6272299;22;20012;-78
2022/11/10 13:13:44;;;;;;;47.83;24.77;;;;;;;;;;6273603;22;20004;-78
2022/11/10 13:16:10;;;;;;;44.45;24.90;;;;;;;;;;6249397;22;20004;-77
2022/11/10 13:18:35;;;;;;;51.10;28.15;;;;;;;;;;6285507;22;19996;-79
2022/11/10 13:21:01;;;;;;;47.13;28.10;;;;;;;;;;6277224;22;20008;-77
2022/11/10 13:23:29;;;;;;;57.63;28.23;;;;;;;;;;6274848;22;20031;-79
2022/11/10 13:25:59;;;;;;;50.17;28.52;;;;;;;;;;6253729;22;20007;-78
2022/11/10 13:28:46;;;;;;;54.78;29.38;;;;;;;;;;6277959;22;20485;-79
2022/11/10 13:31:27;;;;;;;56.92;28.73;;;;;;;;;;6278583;22;20339;-78
2022/11/10 13:34:29;;;;;;;50.63;28.23;;;;;;;;;;6278090;22;19995;-78
2022/11/10 13:36:54;;;;;;;52.88;28.23;;;;;;;;;;6232946;22;20014;-78
2022/11/10 13:39:23;;;;;;;55.65;29.95;;;;;;;;;;6264256;22;19984;-79
2022/11/10 13:42:07;;;;;;;56.08;32.33;;;;;;;;;;6278108;22;20011;-79
2022/11/10 13:44:41;;;;;;;59.53;30.88;;;;;;;;;;6253151;22;20504;-80
2022/11/10 13:47:06;;;;;;;63.42;33.67;;;;;;;;;;6227095;22;20000;-77
2022/11/10 13:49:56;;;;;;;69.75;36.22;;;;;;;;;;6274351;22;20010;-79
2022/11/10 13:52:43;;;;;;;72.30;33.63;;;;;;;;;;6275843;22;19999;-79
2022/11/10 13:55:42;;;;;;;72.18;33.95;;;;;;;;;;6274222;22;20003;-79
2022/11/10 13:58:10;;;;;;;63.70;33.67;;;;;;;;;;6277624;22;20018;-79
2022/11/10 14:00:35;;;;;;;62.25;34.17;;;;;;;;;;6257937;22;20405;-79
2022/11/10 14:03:05;;;;;;;65.05;34.45;;;;;;;;;;6272857;22;20004;-79
2022/11/10 14:05:32;;;;;;;70.63;33.38;;;;;;;;;;6247178;22;20030;-79
2022/11/10 14:08:11;;;;;;;66.13;34.08;;;;;;;;;;6274773;22;20058;-79
2022/11/10 14:10:56;;;;;;;62.63;33.38;;;;;;;;;;6273073;22;20370;-79
2022/11/10 14:13:39;;;;;;;82.30;43.30;;;;;;;;;;6272739;22;20008;-79
2022/11/10 14:16:16;;;;;;;69.05;36.55;;;;;;;;;;6273856;22;20334;-79
2022/11/10 14:19:00;;;;;;;67.20;34.35;;;;;;;;;;6249437;22;20008;-80
2022/11/10 14:21:53;;;;;;;63.05;35.05;;;;;;;;;;6249620;22;20000;-79
2022/11/10 14:24:31;;;;;;;79.70;39.10;;;;;;;;;;6248899;22;20011;-79
2022/11/10 14:26:58;;;;;;;64.13;35.47;;;;;;;;;;6250425;22;20082;-80
2022/11/10 14:29:31;;;;;;;72.45;36.78;;;;;;;;;;6248176;22;20010;-79
2022/11/10 14:31:57;;;;;;;69.80;36.28;;;;;;;;;;6272934;22;20004;-79
2022/11/10 14:34:23;;;;;;;75.57;37.45;;;;;;;;;;6223122;22;20015;-78
2022/11/10 14:36:58;;;;;;;65.68;35.83;;;;;;;;;;6278373;22;20331;-80
2022/11/10 14:39:31;;;;;;;70.07;36.30;;;;;;;;;;6256657;22;20004;-79
2022/11/10 14:41:57;;;;;;;75.82;37.47;;;;;;;;;;6250447;22;20003;-80
2022/11/10 14:44:24;;;;;;;76.20;39.22;;;;;;;;;;6247966;22;20078;-79
2022/11/10 14:46:50;;;;;;;66.68;36.30;;;;;;;;;;6248455;22;20387;-79
2022/11/10 14:49:23;;;;;;;78.57;39.47;;;;;;;;;;6273524;22;20010;-79
2022/11/10 14:51:48;;;;;;;76.32;37.45;;;;;;;;;;6248378;22;20004;-79
2022/11/10 14:54:17;;;;;;;72.82;38.15;;;;;;;;;;6273743;22;19999;-79
2022/11/10 14:56:42;;;;;;;86.78;46.60;;;;;;;;;;6223153;22;20042;-79
2022/11/10 14:59:10;;;;;;;92.25;46.03;;;;;;;;;;6277025;22;20331;-79
2022/11/10 15:01:37;;;;;;;85.97;42.28;;;;;;;;;;6251961;22;20008;-78